No particular awareness of the weather is required.    There are no Weather-warnings


Meteo18 Weather Cam more information Meteo18 Weather Cam


Thunder radar more information blitzortung!


Rain radar more information rain snow radar


Visit our other weather sites:

Template documentation
and downloads

And another site



Weather Underground History page Text

Daily Summary for March 23, 2017 Units:  English    Metric   Both
« Previous Day
Next Day »
Daily Weekly Monthly Yearly Custom
  High: Low: Average:
Temperature: TemperatureC °F 3.8 °F 6.3 °F
Dew Point: DewpointC °F 2.5 °F 4.8 °F
Humidity: Humidity % 85 % 90 %
Wind Speed: WindSpeedKMH mph 0.0 mph 2.4 mph
Wind Gust: WindSpeedGustKMH mph - -
Wind:- - South
Pressure: PressurehPa in 1006.7 in -
Precipitation: 2.3 in    
Historical Graphs
 
 
Tabular Data for March 23, 2017
Time Temperature Dew Point Pressure Wind Wind Speed Wind Gust Humidity Rainfall Rate (Hourly)
TemperatureC °F DewpointC °F PressurehPa in Calm     Humidity % HourlyPrecipMM in
00:02 6.5 °F 4.5 °F 1009.4 in Calm   1.6 mph 87 % 0.0 in
00:12 6.6 °F 4.8 °F 1009.4 in Calm   1.6 mph 88 % 0.0 in
00:17 6.6 °F 4.8 °F 1009.4 in Calm   1.6 mph 88 % 0.0 in
00:22 6.4 °F 4.6 °F 1009.4 in East 1.6 mph 1.6 mph 88 % 0.0 in
00:27 6.3 °F 4.6 °F 1009.0 in ENE 1.6 mph 1.6 mph 89 % 0.0 in
00:32 6.3 °F 4.6 °F 1009.0 in ENE 3.2 mph 3.2 mph 89 % 0.0 in
00:37 6.4 °F 4.7 °F 1009.0 in ENE 1.6 mph 3.2 mph 89 % 0.0 in
00:42 6.3 °F 4.5 °F 1009.0 in ENE 3.2 mph 4.8 mph 88 % 0.0 in
00:52 6.1 °F 4.3 °F 1009.0 in Calm   4.8 mph 88 % 0.0 in
00:57 5.9 °F 4.1 °F 1009.0 in Calm   4.8 mph 88 % 0.0 in
01:02 5.8 °F 4.0 °F 1008.7 in Calm   4.8 mph 88 % 0.0 in
01:07 5.7 °F 3.9 °F 1008.7 in Calm   1.6 mph 88 % 0.0 in
01:12 5.7 °F 3.9 °F 1008.7 in Calm   1.6 mph 88 % 0.0 in
01:17 5.7 °F 3.9 °F 1008.7 in Calm     88 % 0.0 in
01:22 5.6 °F 3.8 °F 1008.7 in Calm     88 % 0.0 in
01:32 5.3 °F 3.6 °F 1008.7 in Calm     89 % 0.0 in
01:37 5.2 °F 3.5 °F 1008.7 in Calm     89 % 0.0 in
01:42 5.2 °F 3.7 °F 1008.4 in Calm     90 % 0.0 in
01:47 5.2 °F 3.5 °F 1008.4 in Calm     89 % 0.0 in
01:52 5.3 °F 3.6 °F 1008.4 in NNE 3.2 mph   89 % 0.0 in
02:02 5.2 °F 3.5 °F 1008.4 in Calm   4.8 mph 89 % 0.0 in
02:07 5.2 °F 3.5 °F 1008.4 in North 1.6 mph 4.8 mph 89 % 0.0 in
02:12 5.2 °F 3.5 °F 1008.4 in Calm   4.8 mph 89 % 0.0 in
02:17 5.0 °F 3.3 °F 1008.4 in North 1.6 mph 1.6 mph 89 % 0.0 in
02:22 4.8 °F 3.1 °F 1008.4 in NW 3.2 mph 3.2 mph 89 % 0.0 in
02:27 4.7 °F 3.2 °F 1008.4 in NW 1.6 mph 3.2 mph 90 % 0.0 in
02:32 4.8 °F 3.3 °F 1008.4 in NNE 3.2 mph 3.2 mph 90 % 0.0 in
02:37 4.7 °F 3.2 °F 1008.4 in Calm   3.2 mph 90 % 0.0 in
02:42 4.7 °F 3.2 °F 1008.4 in Calm   3.2 mph 90 % 0.0 in
02:47 4.4 °F 2.7 °F 1008.4 in WNW 1.6 mph 3.2 mph 89 % 0.0 in
02:52 4.2 °F 2.7 °F 1008.4 in Calm   3.2 mph 90 % 0.0 in
02:57 4.0 °F 2.5 °F 1008.4 in NNE 1.6 mph 3.2 mph 90 % 0.0 in
03:02 3.8 °F 2.5 °F 1008.0 in Calm   3.2 mph 91 % 0.0 in
03:07 3.8 °F 2.6 °F 1008.0 in North 3.2 mph 6.4 mph 92 % 0.0 in
03:12 3.9 °F 2.7 °F 1008.0 in NNE 3.2 mph 6.4 mph 92 % 0.0 in
03:17 4.1 °F 2.8 °F 1007.7 in NNW 1.6 mph 6.4 mph 91 % 0.0 in
03:22 4.1 °F 2.8 °F 1007.7 in North 3.2 mph 6.4 mph 91 % 0.0 in
03:32 4.3 °F 2.8 °F 1007.3 in Calm   6.4 mph 90 % 0.0 in
03:42 4.3 °F 2.8 °F 1007.7 in NNE 3.2 mph 6.4 mph 90 % 0.0 in
03:47 4.6 °F 2.9 °F 1007.3 in NE 1.6 mph 4.8 mph 89 % 0.0 in
03:52 4.7 °F 2.9 °F 1007.3 in ENE 3.2 mph 4.8 mph 88 % 0.0 in
03:57 4.6 °F 2.8 °F 1007.3 in NE 1.6 mph 6.4 mph 88 % 0.0 in
04:02 4.4 °F 2.6 °F 1007.3 in NE 6.4 mph 6.4 mph 88 % 0.0 in
04:07 4.4 °F 2.6 °F 1007.3 in NE 4.8 mph 8.0 mph 88 % 0.0 in
04:12 4.3 °F 2.5 °F 1007.3 in NNE 3.2 mph 8.0 mph 88 % 0.0 in
04:17 4.2 °F 2.5 °F 1007.3 in Calm   8.0 mph 89 % 0.0 in
04:22 4.3 °F 2.6 °F 1007.3 in Calm   8.0 mph 89 % 0.0 in
04:27 4.3 °F 2.5 °F 1007.3 in NE 3.2 mph 6.4 mph 88 % 0.0 in
04:32 4.3 °F 2.6 °F 1007.3 in NNE 4.8 mph 6.4 mph 89 % 0.0 in
04:42 4.6 °F 2.8 °F 1007.3 in NNE 4.8 mph 6.4 mph 88 % 0.0 in
04:47 4.7 °F 2.9 °F 1007.0 in NNE 6.4 mph 6.4 mph 88 % 0.0 in
04:52 4.6 °F 2.6 °F 1006.7 in Calm   6.4 mph 87 % 0.0 in
04:57 4.4 °F 2.6 °F 1006.7 in NE 6.4 mph 6.4 mph 88 % 0.0 in
05:02 4.6 °F 2.8 °F 1007.0 in NE 3.2 mph 6.4 mph 88 % 0.0 in
05:12 4.7 °F 2.7 °F 1007.0 in NE 3.2 mph 6.4 mph 87 % 0.0 in
05:17 4.8 °F 2.8 °F 1006.7 in NE 4.8 mph 4.8 mph 87 % 0.0 in
05:22 4.7 °F 2.7 °F 1006.7 in NNE 3.2 mph 4.8 mph 87 % 0.0 in
05:32 4.6 °F 2.6 °F 1006.7 in Calm   6.4 mph 87 % 0.0 in
05:42 4.6 °F 2.8 °F 1006.7 in Calm   6.4 mph 88 % 0.0 in
05:52 4.6 °F 2.8 °F 1007.0 in Calm   6.4 mph 88 % 0.0 in
06:02 4.7 °F 2.9 °F 1007.0 in Calm   1.6 mph 88 % 0.0 in
06:12 4.8 °F 3.0 °F 1007.3 in WSW 6.4 mph 6.4 mph 88 % 0.0 in
06:17 4.8 °F 3.0 °F 1007.0 in Calm   6.4 mph 88 % 0.0 in
06:22 4.8 °F 3.0 °F 1007.3 in Calm   6.4 mph 88 % 0.0 in
06:27 4.8 °F 3.1 °F 1007.3 in Calm   6.4 mph 89 % 0.0 in
06:32 4.8 °F 3.1 °F 1007.3 in SSW 1.6 mph 6.4 mph 89 % 0.0 in
06:37 4.9 °F 3.4 °F 1007.3 in SSW 1.6 mph 4.8 mph 90 % 0.0 in
06:42 5.0 °F 3.5 °F 1007.3 in WSW 1.6 mph 4.8 mph 90 % 0.0 in
06:47 5.2 °F 3.5 °F 1007.3 in SSW 1.6 mph 8.0 mph 89 % 0.0 in
06:52 5.2 °F 3.5 °F 1007.3 in South 1.6 mph 8.0 mph 89 % 0.0 in
07:02 5.1 °F 3.6 °F 1007.3 in SSW 3.2 mph 8.0 mph 90 % 0.0 in
07:12 5.0 °F 3.7 °F 1007.3 in Calm   3.2 mph 91 % 0.0 in
07:17 5.1 °F 3.8 °F 1007.3 in SSE 1.6 mph 3.2 mph 91 % 0.0 in
07:22 5.2 °F 3.9 °F 1007.3 in Calm   3.2 mph 91 % 0.0 in
07:32 5.3 °F 4.0 °F 1007.7 in Calm   1.6 mph 91 % 0.0 in
07:37 5.3 °F 4.0 °F 1007.7 in Calm   1.6 mph 91 % 0.0 in
07:42 5.3 °F 4.0 °F 1007.7 in Calm   1.6 mph 91 % 0.0 in
07:47 5.3 °F 4.0 °F 1007.7 in Calm   1.6 mph 91 % 0.0 in
07:52 5.3 °F 4.0 °F 1008.0 in Calm     91 % 0.3 in
07:57 5.3 °F 4.1 °F 1008.0 in SW 1.6 mph   92 % 0.3 in
08:02 5.4 °F 4.2 °F 1008.0 in SW 1.6 mph 3.2 mph 92 % 0.3 in
08:07 5.4 °F 4.2 °F 1008.0 in Calm   3.2 mph 92 % 0.3 in
08:12 5.4 °F 4.2 °F 1008.4 in SSW 1.6 mph 4.8 mph 92 % 0.3 in
08:17 5.5 °F 4.3 °F 1008.4 in South 6.4 mph 6.4 mph 92 % 0.3 in
08:22 5.5 °F 4.5 °F 1008.4 in SSW 1.6 mph 8.0 mph 93 % 0.3 in
08:27 5.5 °F 4.5 °F 1008.4 in Calm   8.0 mph 93 % 0.3 in
08:32 5.5 °F 4.5 °F 1008.4 in Calm   8.0 mph 93 % 0.5 in
08:42 5.4 °F 4.4 °F 1008.4 in Calm   1.6 mph 93 % 0.5 in
08:47 5.5 °F 4.5 °F 1008.0 in Calm   1.6 mph 93 % 0.5 in
08:52 5.5 °F 4.5 °F 1008.0 in SE 1.6 mph 1.6 mph 93 % 0.3 in
09:02 5.8 °F 4.8 °F 1008.0 in Calm   1.6 mph 93 % 0.3 in
09:07 5.7 °F 4.7 °F 1008.4 in SE 1.6 mph 1.6 mph 93 % 0.3 in
09:12 5.9 °F 5.0 °F 1008.4 in SE 1.6 mph 3.2 mph 94 % 0.5 in
09:17 6.3 °F 5.3 °F 1008.4 in SE 1.6 mph 3.2 mph 93 % 0.5 in
09:22 6.4 °F 5.4 °F 1008.4 in SSW 1.6 mph 3.2 mph 93 % 0.5 in
09:27 6.8 °F 5.6 °F 1008.4 in SSW 1.6 mph 3.2 mph 92 % 0.5 in
09:32 7.0 °F 5.6 °F 1008.4 in SW 1.6 mph 4.8 mph 91 % 0.3 in
09:37 7.1 °F 5.6 °F 1008.4 in SSE 1.6 mph 4.8 mph 90 % 0.3 in
09:42 7.2 °F 5.7 °F 1008.4 in Calm   3.2 mph 90 % 0.3 in
09:47 7.1 °F 5.4 °F 1008.4 in Calm   3.2 mph 89 % 0.3 in
09:52 7.2 °F 5.7 °F 1008.4 in Calm   3.2 mph 90 % 0.3 in
09:57 7.3 °F 5.6 °F 1008.4 in Calm   3.2 mph 89 % 0.3 in
10:02 7.3 °F 5.6 °F 1008.7 in SW 1.6 mph 3.2 mph 89 % 0.3 in
10:07 7.2 °F 5.5 °F 1008.7 in SSW 4.8 mph 4.8 mph 89 % 0.3 in
10:12 7.1 °F 5.6 °F 1009.0 in SW 11.3 mph 11.3 mph 90 % 0.0 in
10:17 6.8 °F 5.3 °F 1009.4 in WSW 9.7 mph 9.7 mph 90 % 0.0 in
10:22 6.7 °F 5.3 °F 1009.0 in SSW 9.7 mph 19.3 mph 91 % 0.0 in
10:27 6.7 °F 5.3 °F 1009.4 in SW 11.3 mph 19.3 mph 91 % 0.0 in
10:32 6.7 °F 5.3 °F 1009.0 in WSW 11.3 mph 19.3 mph 91 % 0.0 in
10:37 6.7 °F 5.3 °F 1009.0 in SW 9.7 mph 19.3 mph 91 % 0.0 in
10:42 6.6 °F 5.2 °F 1009.0 in Calm   12.9 mph 91 % 0.0 in
10:47 6.6 °F 5.2 °F 1009.0 in WSW 3.2 mph 12.9 mph 91 % 0.0 in
10:52 6.6 °F 5.2 °F 1009.0 in WSW 1.6 mph 11.3 mph 91 % 0.0 in
10:57 6.6 °F 5.2 °F 1009.0 in WSW 4.8 mph 11.3 mph 91 % 0.0 in
11:02 6.6 °F 5.2 °F 1009.0 in Calm   4.8 mph 91 % 0.0 in
11:07 6.6 °F 5.2 °F 1009.0 in Calm   4.8 mph 91 % 0.0 in
11:12 6.7 °F 5.3 °F 1009.0 in SW 1.6 mph 4.8 mph 91 % 0.0 in
11:17 6.7 °F 5.3 °F 1009.4 in West 3.2 mph 4.8 mph 91 % 0.0 in
11:27 6.8 °F 5.6 °F 1009.4 in WSW 4.8 mph 4.8 mph 92 % 0.0 in
11:32 6.9 °F 5.7 °F 1009.0 in WSW 6.4 mph 8.0 mph 92 % 0.0 in
11:37 6.9 °F 5.5 °F 1009.4 in WSW 11.3 mph 11.3 mph 91 % 0.0 in
11:42 6.9 °F 5.7 °F 1009.4 in WSW 4.8 mph 11.3 mph 92 % 0.0 in
11:52 6.8 °F 5.4 °F 1009.0 in SW 3.2 mph 11.3 mph 91 % 0.0 in
11:57 6.9 °F 5.7 °F 1009.4 in WSW 1.6 mph 11.3 mph 92 % 0.0 in
12:02 6.9 °F 5.5 °F 1009.4 in WSW 3.2 mph 8.0 mph 91 % 0.0 in
12:07 7.0 °F 5.6 °F 1009.4 in West 1.6 mph 8.0 mph 91 % 0.0 in
12:12 7.1 °F 5.7 °F 1009.4 in West 1.6 mph 6.4 mph 91 % 0.0 in
12:17 7.1 °F 5.6 °F 1009.4 in West 4.8 mph 6.4 mph 90 % 0.0 in
12:22 7.0 °F 5.5 °F 1009.4 in West 3.2 mph 8.0 mph 90 % 0.0 in
12:32 7.1 °F 5.6 °F 1009.4 in West 1.6 mph 8.0 mph 90 % 0.0 in
12:37 7.1 °F 5.6 °F 1009.4 in WNW 1.6 mph 8.0 mph 90 % 0.0 in
12:42 7.3 °F 5.8 °F 1009.4 in West 3.2 mph 6.4 mph 90 % 0.3 in
12:47 7.5 °F 6.0 °F 1009.0 in Calm   6.4 mph 90 % 0.3 in
12:52 7.8 °F 6.1 °F 1009.4 in Calm   8.0 mph 89 % 0.3 in
12:57 7.9 °F 6.0 °F 1009.4 in SE 1.6 mph 8.0 mph 88 % 0.3 in
13:02 8.2 °F 6.3 °F 1009.4 in NE 3.2 mph 8.0 mph 88 % 0.3 in
13:12 8.6 °F 6.6 °F 1009.4 in Calm   3.2 mph 87 % 0.3 in
13:17 8.6 °F 6.6 °F 1009.4 in NNE 1.6 mph 4.8 mph 87 % 0.3 in
13:22 8.7 °F 6.7 °F 1009.4 in Calm   4.8 mph 87 % 0.3 in
13:32 8.9 °F 6.7 °F 1009.7 in Calm   1.6 mph 86 % 0.3 in
13:37 8.7 °F 6.3 °F 1009.7 in Calm     85 % 0.0 in
13:42 8.7 °F 6.3 °F 1010.0 in SW 4.8 mph   85 % 0.0 in
13:47 8.6 °F 6.4 °F 1010.0 in Calm   6.4 mph 86 % 0.0 in
13:52 8.6 °F 6.2 °F 1010.0 in SSW 6.4 mph 6.4 mph 85 % 0.0 in
13:57 8.5 °F 6.3 °F 1010.0 in South 1.6 mph 11.3 mph 86 % 0.0 in
14:02 8.4 °F 6.2 °F 1010.0 in SSW 3.2 mph 11.3 mph 86 % 0.0 in
14:07 8.2 °F 6.2 °F 1010.0 in SSW 4.8 mph 11.3 mph 87 % 0.3 in
14:12 8.2 °F 6.2 °F 1010.0 in SSW 3.2 mph 11.3 mph 87 % 0.3 in
14:17 8.1 °F 6.1 °F 1010.0 in South 1.6 mph 9.7 mph 87 % 0.3 in
14:22 8.1 °F 5.9 °F 1010.0 in SSE 3.2 mph 9.7 mph 86 % 0.3 in
14:27 8.1 °F 6.1 °F 1010.0 in SSW 8.0 mph 11.3 mph 87 % 0.3 in
14:32 8.0 °F 6.0 °F 1010.4 in SSW 11.3 mph 11.3 mph 87 % 0.3 in
14:37 8.0 °F 6.1 °F 1010.4 in SSW 11.3 mph 12.9 mph 88 % 0.3 in
14:42 7.8 °F 6.1 °F 1010.7 in SW 9.7 mph 12.9 mph 89 % 0.3 in
14:52 7.4 °F 6.0 °F 1010.4 in SSW 8.0 mph 19.3 mph 91 % 0.5 in
15:02 7.3 °F 6.1 °F 1010.0 in WSW 4.8 mph 19.3 mph 92 % 1.0 in
15:07 7.4 °F 6.3 °F 1010.0 in WSW 4.8 mph 12.9 mph 93 % 1.3 in
15:12 7.4 °F 6.0 °F 1010.0 in WSW 11.3 mph 12.9 mph 91 % 1.3 in
15:22 7.3 °F 6.1 °F 1010.0 in WSW 4.8 mph 19.3 mph 92 % 1.3 in
15:27 7.4 °F 6.2 °F 1010.4 in SW 6.4 mph 20.9 mph 92 % 1.5 in
15:32 7.6 °F 6.4 °F 1010.0 in WSW 3.2 mph 20.9 mph 92 % 1.5 in
15:42 7.6 °F 6.2 °F 1010.4 in WSW 11.3 mph 17.7 mph 91 % 1.5 in
15:47 7.6 °F 6.2 °F 1010.4 in West 11.3 mph 17.7 mph 91 % 1.0 in
15:52 7.3 °F 5.6 °F 1010.4 in West 14.5 mph 17.7 mph 89 % 1.0 in
16:02 7.3 °F 5.6 °F 1010.7 in West 12.9 mph 20.9 mph 89 % 0.5 in
16:12 7.6 °F 5.9 °F 1010.7 in West 9.7 mph 20.9 mph 89 % 0.3 in
16:17 7.6 °F 5.7 °F 1011.1 in SW 9.7 mph 14.5 mph 88 % 0.3 in
16:22 7.6 °F 5.4 °F 1010.7 in West 9.7 mph 14.5 mph 86 % 0.3 in
16:32 7.6 °F 5.4 °F 1011.1 in West 6.4 mph 14.5 mph 86 % 0.0 in
16:37 7.6 °F 5.4 °F 1011.1 in WSW 1.6 mph 14.5 mph 86 % 0.0 in
16:42 7.6 °F 5.4 °F 1011.1 in West 8.0 mph 14.5 mph 86 % 0.0 in
16:47 7.6 °F 5.4 °F 1011.4 in WSW 8.0 mph 12.9 mph 86 % 0.0 in
16:52 7.5 °F 5.3 °F 1011.4 in WSW 4.8 mph 12.9 mph 86 % 0.0 in
16:57 7.4 °F 5.2 °F 1011.7 in WSW 6.4 mph 11.3 mph 86 % 0.0 in
17:02 7.4 °F 5.4 °F 1011.7 in WSW 1.6 mph 11.3 mph 87 % 0.0 in
17:12 7.4 °F 5.4 °F 1011.7 in SW 3.2 mph 9.7 mph 87 % 0.0 in
17:17 7.4 °F 5.4 °F 1011.7 in Calm   4.8 mph 87 % 0.0 in
17:22 7.4 °F 5.5 °F 1011.7 in Calm   4.8 mph 88 % 0.0 in
17:32 7.5 °F 5.6 °F 1011.7 in Calm   4.8 mph 88 % 0.0 in
17:42 7.4 °F 5.5 °F 1012.1 in Calm   4.8 mph 88 % 0.0 in
17:47 7.4 °F 5.5 °F 1012.1 in Calm   4.8 mph 88 % 0.0 in
17:52 7.4 °F 5.7 °F 1012.4 in ESE 1.6 mph 4.8 mph 89 % 0.0 in
17:57 7.4 °F 5.7 °F 1012.4 in Calm   3.2 mph 89 % 0.0 in
18:02 7.4 °F 5.7 °F 1012.8 in Calm   3.2 mph 89 % 0.0 in
18:12 7.3 °F 5.8 °F 1013.1 in Calm   3.2 mph 90 % 0.0 in
18:17 7.3 °F 5.8 °F 1013.1 in ESE 4.8 mph 4.8 mph 90 % 0.0 in
18:22 7.3 °F 5.8 °F 1013.1 in Calm   4.8 mph 90 % 0.0 in
18:27 7.2 °F 5.7 °F 1013.1 in Calm   4.8 mph 90 % 0.0 in
18:32 7.2 °F 5.7 °F 1013.4 in SE 1.6 mph 4.8 mph 90 % 0.0 in
18:37 7.2 °F 5.7 °F 1013.4 in Calm   4.8 mph 90 % 0.0 in
18:42 7.2 °F 5.7 °F 1013.4 in Calm   4.8 mph 90 % 0.0 in
18:47 7.1 °F 5.6 °F 1013.1 in Calm   4.8 mph 90 % 0.0 in
18:57 7.1 °F 5.7 °F 1013.1 in Calm   3.2 mph 91 % 0.0 in
19:02 7.0 °F 5.6 °F 1013.1 in Calm   3.2 mph 91 % 0.0 in
19:12 6.9 °F 5.5 °F 1013.4 in Calm   3.2 mph 91 % 0.0 in
19:17 6.9 °F 5.7 °F 1013.4 in Calm   3.2 mph 92 % 0.0 in
19:22 6.8 °F 5.6 °F 1013.8 in Calm   3.2 mph 92 % 0.0 in
19:32 6.8 °F 5.6 °F 1013.8 in Calm   1.6 mph 92 % 0.0 in
19:37 6.8 °F 5.6 °F 1013.8 in Calm   1.6 mph 92 % 0.0 in
19:42 6.8 °F 5.7 °F 1014.1 in SW 3.2 mph 3.2 mph 93 % 0.0 in
19:52 6.8 °F 5.7 °F 1014.4 in SSW 1.6 mph 4.8 mph 93 % 0.0 in
19:57 6.8 °F 5.7 °F 1014.4 in SW 3.2 mph 4.8 mph 93 % 0.0 in
20:02 6.8 °F 5.7 °F 1014.4 in SSW 3.2 mph 4.8 mph 93 % 0.0 in
20:07 6.8 °F 5.7 °F 1014.8 in SSW 4.8 mph 6.4 mph 93 % 0.0 in
20:12 6.8 °F 5.7 °F 1014.8 in SSW 3.2 mph 6.4 mph 93 % 0.0 in
20:17 6.8 °F 5.7 °F 1014.8 in SSW 1.6 mph 8.0 mph 93 % 0.0 in
20:22 6.7 °F 5.6 °F 1015.1 in SSW 1.6 mph 8.0 mph 93 % 0.0 in
20:27 6.7 °F 5.6 °F 1015.1 in Calm   6.4 mph 93 % 0.0 in
20:37 6.7 °F 5.5 °F 1015.5 in Calm   6.4 mph 92 % 0.0 in
20:42 6.7 °F 5.6 °F 1015.5 in South 1.6 mph 6.4 mph 93 % 0.0 in
20:52 6.7 °F 5.6 °F 1015.5 in Calm   6.4 mph 93 % 0.0 in
20:57 6.7 °F 5.6 °F 1015.5 in Calm   3.2 mph 93 % 0.0 in
21:02 6.6 °F 5.5 °F 1015.5 in South 1.6 mph 3.2 mph 93 % 0.0 in
21:12 6.6 °F 5.5 °F 1015.5 in Calm   3.2 mph 93 % 0.0 in
21:17 6.5 °F 5.4 °F 1015.8 in SSW 1.6 mph 3.2 mph 93 % 0.0 in
21:22 6.5 °F 5.4 °F 1015.8 in Calm   3.2 mph 93 % 0.0 in
21:27 6.5 °F 5.4 °F 1016.1 in SW 1.6 mph 3.2 mph 93 % 0.0 in
21:32 6.5 °F 5.4 °F 1016.1 in SSW 1.6 mph 3.2 mph 93 % 0.0 in
21:42 6.5 °F 5.4 °F 1016.1 in Calm   4.8 mph 93 % 0.0 in
21:52 6.5 °F 5.4 °F 1016.1 in SW 4.8 mph 4.8 mph 93 % 0.0 in
21:57 6.5 °F 5.4 °F 1016.1 in Calm   6.4 mph 93 % 0.0 in
22:02 6.4 °F 5.4 °F 1016.1 in Calm   6.4 mph 93 % 0.0 in
22:07 6.4 °F 5.4 °F 1016.1 in SSW 1.6 mph 4.8 mph 93 % 0.0 in
22:17 6.4 °F 5.2 °F 1016.5 in SSW 1.6 mph 3.2 mph 92 % 0.0 in
22:22 6.3 °F 5.1 °F 1016.5 in Calm   3.2 mph 92 % 0.0 in
22:27 6.3 °F 5.1 °F 1016.5 in Calm   1.6 mph 92 % 0.0 in
22:32 6.2 °F 5.0 °F 1016.8 in SW 1.6 mph 1.6 mph 92 % 0.0 in
22:42 6.2 °F 5.2 °F 1016.8 in West 1.6 mph 3.2 mph 93 % 0.0 in
22:52 6.2 °F 5.0 °F 1016.8 in Calm   3.2 mph 92 % 0.0 in
22:57 6.1 °F 4.9 °F 1017.2 in Calm   1.6 mph 92 % 0.0 in
23:02 6.1 °F 4.9 °F 1017.2 in Calm   1.6 mph 92 % 0.0 in
23:12 5.9 °F 4.9 °F 1017.5 in Calm     93 % 0.0 in
23:17 5.9 °F 4.9 °F 1017.5 in Calm   1.6 mph 93 % 0.0 in
23:22 5.8 °F 4.8 °F 1017.5 in Calm   1.6 mph 93 % 0.0 in
23:32 5.6 °F 4.6 °F 1017.5 in ENE 1.6 mph 3.2 mph 93 % 0.0 in
23:37 5.4 °F 4.4 °F 1017.8 in Calm   3.2 mph 93 % 0.0 in
23:42 5.4 °F 4.5 °F 1017.8 in East 3.2 mph 3.2 mph 94 % 0.0 in
23:52 5.3 °F 4.3 °F 1017.8 in Calm   3.2 mph 93 % 0.0 in
23:57 5.1 °F 4.1 °F 1017.5 in Calm   3.2 mph 93 % 0.0 in
Meteo18
Compliments of Weather Underground - 4 mb

Script developed by  Jim McMurry - jmcmurry@mwt.net Adapted for the template by  Wim van der Kuil - Leuven-Template.eu

You find our weather info also at:

European Weather Network

Weather Underground

Equipment we use:

Weather-station
Davis Vue

Weather-program
Meteobridge

Weather-server
Raspberry PI 2 B+

Provider
1 and 1

Davis Vue

Meteobridge

Raspberry PI 2 B+

1 and 1